aviador You're here:

KVAD Decoded Metar

VALDOSTA in GA, USA
Report Time2017-09-25 19:58:00
UTC Time2017-09-25 20:21:48
Flight Rules vfr VFR
Wind010° at 04 kt
W.Decomp.*RWY 36: 3.9 kt HW 0.9 kt RCW
W.Rank010° ranks 24
Current wind is below 010° avg. (5.6)
Visibility9999 m
Phenomena:N/A
Clouds:Few 050 Hf
Expected CloudBase > 4,800 ft AGL from Temp-Dew spread
CeilingNone
Temp31°C (ISA +16)
Dew Point19°C (49% RH)
Heat Index32.4°C
QNH1012 hPa
Density Alt2,441 ft
Elevation233 ft
Report Wrong Elevation
Raw Report
KVAD 251958Z AUTO 01004KT 10SM FEW050 31/19 A2987 RMK AO2 SLP115
T03090186 $=

Extra information for KVAD:More info

Metar Taf Metar & Taf Last 4 Metars F.Rules Stats Wind Profile Meteogram Temp Stats Airport Information Weather charts Add Link Nearby VenuesMetar ALERT Operation Metar Decoded Social comments

AIRNAV info for KVAD